sensor_id;sensor_type;location;lat;lon;timestamp;P1;durP1;ratioP1;P2;durP2;ratioP2
72785;SDS011;60902;53.876;10.674;2022-11-15T00:00:07;25.08;;;18.17;;
72785;SDS011;60902;53.876;10.674;2022-11-15T00:00:21;23.95;;;17.60;;
72785;SDS011;60902;53.876;10.674;2022-11-15T00:00:34;24.83;;;17.85;;
72785;SDS011;60902;53.876;10.674;2022-11-15T00:00:56;25.70;;;18.60;;
72785;SDS011;60902;53.876;10.674;2022-11-15T00:01:20;26.25;;;18.30;;
72785;SDS011;60902;53.876;10.674;2022-11-15T00:01:39;25.70;;;18.40;;
72785;SDS011;60902;53.876;10.674;2022-11-15T00:01:53;26.08;;;18.65;;
72785;SDS011;60902;53.876;10.674;2022-11-15T00:02:05;26.77;;;19.23;;
72785;SDS011;60902;53.876;10.674;2022-11-15T00:02:16;26.55;;;18.85;;
72785;SDS011;60902;53.876;10.674;2022-11-15T00:02:31;26.17;;;18.63;;
72785;SDS011;60902;53.876;10.674;2022-11-15T00:02:51;25.95;;;18.58;;
72785;SDS011;60902;53.876;10.674;2022-11-15T00:03:08;25.60;;;18.60;;
72785;SDS011;60902;53.876;10.674;2022-11-15T00:03:21;26.70;;;18.90;;
72785;SDS011;60902;53.876;10.674;2022-11-15T00:03:34;26.42;;;18.75;;
72785;SDS011;60902;53.876;10.674;2022-11-15T00:03:50;26.58;;;18.52;;
72785;SDS011;60902;53.876;10.674;2022-11-15T00:04:01;26.40;;;18.23;;
72785;SDS011;60902;53.876;10.674;2022-11-15T00:04:13;26.50;;;18.48;;
72785;SDS011;60902;53.876;10.674;2022-11-15T00:04:24;26.15;;;18.40;;
72785;SDS011;60902;53.876;10.674;2022-11-15T00:04:38;27.15;;;18.70;;
72785;SDS011;60902;53.876;10.674;2022-11-15T00:04:52;26.33;;;18.85;;
72785;SDS011;60902;53.876;10.674;2022-11-15T00:05:06;25.77;;;18.55;;
72785;SDS011;60902;53.876;10.674;2022-11-15T00:05:22;26.60;;;18.52;;
72785;SDS011;60902;53.876;10.674;2022-11-15T00:05:40;27.67;;;18.67;;
72785;SDS011;60902;53.876;10.674;2022-11-15T00:05:53;27.33;;;18.52;;
72785;SDS011;60902;53.876;10.674;2022-11-15T00:06:08;26.13;;;18.52;;
72785;SDS011;60902;53.876;10.674;2022-11-15T00:06:20;26.63;;;18.85;;
72785;SDS011;60902;53.876;10.674;2022-11-15T00:06:31;27.67;;;19.17;;
72785;SDS011;60902;53.876;10.674;2022-11-15T00:06:52;27.13;;;19.73;;
72785;SDS011;60902;53.876;10.674;2022-11-15T00:07:03;25.23;;;19.50;;
72785;SDS011;60902;53.876;10.674;2022-11-15T00:07:17;25.10;;;18.83;;
72785;SDS011;60902;53.876;10.674;2022-11-15T00:07:28;25.77;;;18.75;;
72785;SDS011;60902;53.876;10.674;2022-11-15T00:07:38;25.48;;;18.60;;
72785;SDS011;60902;53.876;10.674;2022-11-15T00:07:50;25.33;;;18.20;;
72785;SDS011;60902;53.876;10.674;2022-11-15T00:08:02;25.40;;;18.35;;
72785;SDS011;60902;53.876;10.674;2022-11-15T00:08:15;24.55;;;18.08;;
72785;SDS011;60902;53.876;10.674;2022-11-15T00:08:32;25.50;;;18.23;;
72785;SDS011;60902;53.876;10.674;2022-11-15T00:08:43;26.08;;;18.70;;
72785;SDS011;60902;53.876;10.674;2022-11-15T00:08:57;25.83;;;18.65;;
72785;SDS011;60902;53.876;10.674;2022-11-15T00:09:17;25.50;;;18.17;;
72785;SDS011;60902;53.876;10.674;2022-11-15T00:09:32;24.55;;;18.35;;
72785;SDS011;60902;53.876;10.674;2022-11-15T00:09:47;25.73;;;19.02;;
72785;SDS011;60902;53.876;10.674;2022-11-15T00:09:58;27.42;;;19.17;;
72785;SDS011;60902;53.876;10.674;2022-11-15T00:10:17;27.20;;;18.65;;
72785;SDS011;60902;53.876;10.674;2022-11-15T00:10:53;25.30;;;18.17;;
72785;SDS011;60902;53.876;10.674;2022-11-15T00:11:13;25.83;;;18.00;;
72785;SDS011;60902;53.876;10.674;2022-11-15T00:11:33;25.98;;;18.48;;
72785;SDS011;60902;53.876;10.674;2022-11-15T00:11:46;24.83;;;17.92;;
72785;SDS011;60902;53.876;10.674;2022-11-15T00:11:57;24.55;;;18.10;;
72785;SDS011;60902;53.876;10.674;2022-11-15T00:12:15;25.63;;;18.45;;
72785;SDS011;60902;53.876;10.674;2022-11-15T00:12:35;26.27;;;19.27;;
72785;SDS011;60902;53.876;10.674;2022-11-15T00:12:50;25.80;;;19.00;;
72785;SDS011;60902;53.876;10.674;2022-11-15T00:13:03;25.92;;;18.83;;
72785;SDS011;60902;53.876;10.674;2022-11-15T00:13:18;25.90;;;18.95;;
72785;SDS011;60902;53.876;10.674;2022-11-15T00:13:32;25.17;;;18.52;;
72785;SDS011;60902;53.876;10.674;2022-11-15T00:13:46;25.20;;;18.05;;
72785;SDS011;60902;53.876;10.674;2022-11-15T00:14:03;24.83;;;17.83;;
72785;SDS011;60902;53.876;10.674;2022-11-15T00:14:16;25.88;;;18.73;;
72785;SDS011;60902;53.876;10.674;2022-11-15T00:14:29;26.55;;;18.83;;
72785;SDS011;60902;53.876;10.674;2022-11-15T00:14:45;24.48;;;17.55;;
72785;SDS011;60902;53.876;10.674;2022-11-15T00:15:00;23.90;;;17.67;;
72785;SDS011;60902;53.876;10.674;2022-11-15T00:15:27;25.58;;;18.33;;
72785;SDS011;60902;53.876;10.674;2022-11-15T00:15:41;25.17;;;17.88;;
72785;SDS011;60902;53.876;10.674;2022-11-15T00:15:52;25.73;;;18.48;;
72785;SDS011;60902;53.876;10.674;2022-11-15T00:16:09;25.60;;;18.67;;
72785;SDS011;60902;53.876;10.674;2022-11-15T00:16:20;25.05;;;18.33;;
72785;SDS011;60902;53.876;10.674;2022-11-15T00:16:31;25.02;;;18.20;;
72785;SDS011;60902;53.876;10.674;2022-11-15T00:16:44;25.73;;;18.38;;
72785;SDS011;60902;53.876;10.674;2022-11-15T00:17:03;27.00;;;18.98;;
72785;SDS011;60902;53.876;10.674;2022-11-15T00:17:17;27.70;;;19.23;;
72785;SDS011;60902;53.876;10.674;2022-11-15T00:17:33;26.42;;;18.60;;
72785;SDS011;60902;53.876;10.674;2022-11-15T00:17:47;26.05;;;18.08;;
72785;SDS011;60902;53.876;10.674;2022-11-15T00:18:01;26.58;;;18.38;;
72785;SDS011;60902;53.876;10.674;2022-11-15T00:18:13;25.53;;;18.60;;
72785;SDS011;60902;53.876;10.674;2022-11-15T00:18:25;26.17;;;18.65;;
72785;SDS011;60902;53.876;10.674;2022-11-15T00:18:37;26.40;;;18.33;;
72785;SDS011;60902;53.876;10.674;2022-11-15T00:18:49;26.38;;;18.55;;
72785;SDS011;60902;53.876;10.674;2022-11-15T00:19:06;25.92;;;19.00;;
72785;SDS011;60902;53.876;10.674;2022-11-15T00:19:19;26.48;;;18.75;;
72785;SDS011;60902;53.876;10.674;2022-11-15T00:19:32;25.48;;;18.17;;
72785;SDS011;60902;53.876;10.674;2022-11-15T00:19:43;25.83;;;18.90;;
72785;SDS011;60902;53.876;10.674;2022-11-15T00:19:56;26.98;;;19.33;;
72785;SDS011;60902;53.876;10.674;2022-11-15T00:20:07;27.27;;;19.33;;
72785;SDS011;60902;53.876;10.674;2022-11-15T00:20:19;26.60;;;19.02;;
72785;SDS011;60902;53.876;10.674;2022-11-15T00:20:30;25.67;;;18.38;;
72785;SDS011;60902;53.876;10.674;2022-11-15T00:20:41;25.83;;;18.23;;
72785;SDS011;60902;53.876;10.674;2022-11-15T00:20:52;25.15;;;18.10;;
72785;SDS011;60902;53.876;10.674;2022-11-15T00:21:03;24.33;;;18.02;;
72785;SDS011;60902;53.876;10.674;2022-11-15T00:21:17;24.98;;;17.90;;
72785;SDS011;60902;53.876;10.674;2022-11-15T00:21:28;26.58;;;18.27;;
72785;SDS011;60902;53.876;10.674;2022-11-15T00:21:40;26.30;;;18.38;;
72785;SDS011;60902;53.876;10.674;2022-11-15T00:21:50;26.20;;;18.70;;
72785;SDS011;60902;53.876;10.674;2022-11-15T00:22:01;26.20;;;18.83;;
72785;SDS011;60902;53.876;10.674;2022-11-15T00:22:12;26.52;;;18.63;;
72785;SDS011;60902;53.876;10.674;2022-11-15T00:22:23;26.40;;;18.50;;
72785;SDS011;60902;53.876;10.674;2022-11-15T00:22:34;27.00;;;20.08;;
72785;SDS011;60902;53.876;10.674;2022-11-15T00:22:46;26.58;;;20.00;;
72785;SDS011;60902;53.876;10.674;2022-11-15T00:22:58;25.65;;;18.27;;
72785;SDS011;60902;53.876;10.674;2022-11-15T00:23:09;25.85;;;18.25;;
72785;SDS011;60902;53.876;10.674;2022-11-15T00:23:20;25.25;;;18.02;;
72785;SDS011;60902;53.876;10.674;2022-11-15T00:23:34;24.50;;;18.30;;
72785;SDS011;60902;53.876;10.674;2022-11-15T00:23:45;24.95;;;18.40;;
72785;SDS011;60902;53.876;10.674;2022-11-15T00:23:59;25.42;;;18.33;;
72785;SDS011;60902;53.876;10.674;2022-11-15T00:24:10;26.40;;;18.83;;
72785;SDS011;60902;53.876;10.674;2022-11-15T00:24:21;26.30;;;18.90;;
72785;SDS011;60902;53.876;10.674;2022-11-15T00:24:32;26.20;;;19.02;;
72785;SDS011;60902;53.876;10.674;2022-11-15T00:24:46;26.75;;;19.52;;
72785;SDS011;60902;53.876;10.674;2022-11-15T00:24:56;26.88;;;18.75;;
72785;SDS011;60902;53.876;10.674;2022-11-15T00:25:08;26.23;;;18.45;;
72785;SDS011;60902;53.876;10.674;2022-11-15T00:25:18;25.70;;;18.52;;
72785;SDS011;60902;53.876;10.674;2022-11-15T00:25:30;26.38;;;18.98;;
72785;SDS011;60902;53.876;10.674;2022-11-15T00:25:41;26.55;;;19.00;;
72785;SDS011;60902;53.876;10.674;2022-11-15T00:25:56;26.27;;;18.80;;
72785;SDS011;60902;53.876;10.674;2022-11-15T00:26:08;26.60;;;18.80;;
72785;SDS011;60902;53.876;10.674;2022-11-15T00:26:22;25.77;;;18.05;;
72785;SDS011;60902;53.876;10.674;2022-11-15T00:26:33;25.58;;;18.20;;
72785;SDS011;60902;53.876;10.674;2022-11-15T00:26:44;25.85;;;18.83;;
72785;SDS011;60902;53.876;10.674;2022-11-15T00:26:56;26.38;;;19.05;;
72785;SDS011;60902;53.876;10.674;2022-11-15T00:27:06;26.52;;;18.92;;
72785;SDS011;60902;53.876;10.674;2022-11-15T00:27:17;25.77;;;18.52;;
72785;SDS011;60902;53.876;10.674;2022-11-15T00:27:28;25.25;;;18.25;;
72785;SDS011;60902;53.876;10.674;2022-11-15T00:27:39;24.70;;;18.02;;
72785;SDS011;60902;53.876;10.674;2022-11-15T00:27:50;25.67;;;18.23;;
72785;SDS011;60902;53.876;10.674;2022-11-15T00:28:05;24.67;;;17.92;;
72785;SDS011;60902;53.876;10.674;2022-11-15T00:28:16;24.70;;;17.95;;
72785;SDS011;60902;53.876;10.674;2022-11-15T00:28:27;25.20;;;18.00;;
72785;SDS011;60902;53.876;10.674;2022-11-15T00:28:38;27.58;;;19.55;;
72785;SDS011;60902;53.876;10.674;2022-11-15T00:28:51;27.30;;;19.48;;
72785;SDS011;60902;53.876;10.674;2022-11-15T00:29:02;26.30;;;19.17;;
72785;SDS011;60902;53.876;10.674;2022-11-15T00:29:13;24.83;;;18.05;;
72785;SDS011;60902;53.876;10.674;2022-11-15T00:29:24;25.40;;;18.17;;
72785;SDS011;60902;53.876;10.674;2022-11-15T00:29:35;25.50;;;18.20;;
72785;SDS011;60902;53.876;10.674;2022-11-15T00:29:47;25.60;;;19.13;;
72785;SDS011;60902;53.876;10.674;2022-11-15T00:29:59;25.85;;;19.38;;
72785;SDS011;60902;53.876;10.674;2022-11-15T00:30:11;26.00;;;19.30;;
72785;SDS011;60902;53.876;10.674;2022-11-15T00:30:22;25.67;;;18.90;;
72785;SDS011;60902;53.876;10.674;2022-11-15T00:30:33;27.38;;;18.70;;
72785;SDS011;60902;53.876;10.674;2022-11-15T00:30:44;27.70;;;18.75;;
72785;SDS011;60902;53.876;10.674;2022-11-15T00:30:59;25.80;;;17.73;;
72785;SDS011;60902;53.876;10.674;2022-11-15T00:31:11;24.30;;;17.65;;
72785;SDS011;60902;53.876;10.674;2022-11-15T00:31:23;25.42;;;17.77;;
72785;SDS011;60902;53.876;10.674;2022-11-15T00:31:35;25.70;;;18.20;;
72785;SDS011;60902;53.876;10.674;2022-11-15T00:31:46;25.88;;;18.15;;
72785;SDS011;60902;53.876;10.674;2022-11-15T00:31:57;26.25;;;18.15;;
72785;SDS011;60902;53.876;10.674;2022-11-15T00:32:08;26.75;;;18.13;;
72785;SDS011;60902;53.876;10.674;2022-11-15T00:32:19;26.55;;;18.13;;
72785;SDS011;60902;53.876;10.674;2022-11-15T00:32:30;26.55;;;18.08;;
72785;SDS011;60902;53.876;10.674;2022-11-15T00:32:41;25.20;;;17.98;;
72785;SDS011;60902;53.876;10.674;2022-11-15T00:32:52;24.67;;;18.10;;
72785;SDS011;60902;53.876;10.674;2022-11-15T00:33:03;25.17;;;18.55;;
72785;SDS011;60902;53.876;10.674;2022-11-15T00:33:15;25.65;;;18.63;;
72785;SDS011;60902;53.876;10.674;2022-11-15T00:33:30;26.05;;;18.60;;
72785;SDS011;60902;53.876;10.674;2022-11-15T00:33:42;26.23;;;18.52;;
72785;SDS011;60902;53.876;10.674;2022-11-15T00:33:55;26.98;;;18.52;;
72785;SDS011;60902;53.876;10.674;2022-11-15T00:34:06;26.88;;;19.30;;
72785;SDS011;60902;53.876;10.674;2022-11-15T00:34:18;26.20;;;19.35;;
72785;SDS011;60902;53.876;10.674;2022-11-15T00:34:29;24.42;;;18.45;;
72785;SDS011;60902;53.876;10.674;2022-11-15T00:34:41;24.23;;;18.08;;
72785;SDS011;60902;53.876;10.674;2022-11-15T00:34:51;24.70;;;18.38;;
72785;SDS011;60902;53.876;10.674;2022-11-15T00:35:02;24.70;;;18.65;;
72785;SDS011;60902;53.876;10.674;2022-11-15T00:35:14;24.80;;;18.45;;
72785;SDS011;60902;53.876;10.674;2022-11-15T00:35:25;25.42;;;18.08;;
72785;SDS011;60902;53.876;10.674;2022-11-15T00:35:37;25.98;;;17.95;;
72785;SDS011;60902;53.876;10.674;2022-11-15T00:35:48;25.58;;;18.27;;
72785;SDS011;60902;53.876;10.674;2022-11-15T00:36:01;25.00;;;18.33;;
72785;SDS011;60902;53.876;10.674;2022-11-15T00:36:14;24.45;;;17.98;;
72785;SDS011;60902;53.876;10.674;2022-11-15T00:36:26;25.60;;;18.40;;
72785;SDS011;60902;53.876;10.674;2022-11-15T00:36:37;26.17;;;18.63;;
72785;SDS011;60902;53.876;10.674;2022-11-15T00:36:48;25.63;;;18.25;;
72785;SDS011;60902;53.876;10.674;2022-11-15T00:36:58;25.55;;;18.60;;
72785;SDS011;60902;53.876;10.674;2022-11-15T00:37:09;25.77;;;18.50;;
72785;SDS011;60902;53.876;10.674;2022-11-15T00:37:20;26.60;;;18.77;;
72785;SDS011;60902;53.876;10.674;2022-11-15T00:37:31;25.92;;;18.33;;
72785;SDS011;60902;53.876;10.674;2022-11-15T00:37:42;24.67;;;18.10;;
72785;SDS011;60902;53.876;10.674;2022-11-15T00:37:53;24.23;;;17.77;;
72785;SDS011;60902;53.876;10.674;2022-11-15T00:38:05;25.73;;;18.05;;
72785;SDS011;60902;53.876;10.674;2022-11-15T00:38:15;26.90;;;18.47;;
72785;SDS011;60902;53.876;10.674;2022-11-15T00:38:29;27.20;;;18.95;;
72785;SDS011;60902;53.876;10.674;2022-11-15T00:38:41;26.00;;;18.50;;
72785;SDS011;60902;53.876;10.674;2022-11-15T00:38:57;25.30;;;18.00;;
72785;SDS011;60902;53.876;10.674;2022-11-15T00:39:09;25.30;;;18.10;;
72785;SDS011;60902;53.876;10.674;2022-11-15T00:39:21;26.02;;;18.63;;
72785;SDS011;60902;53.876;10.674;2022-11-15T00:39:32;26.02;;;18.52;;
72785;SDS011;60902;53.876;10.674;2022-11-15T00:39:43;25.70;;;18.00;;
72785;SDS011;60902;53.876;10.674;2022-11-15T00:39:54;25.13;;;17.80;;
72785;SDS011;60902;53.876;10.674;2022-11-15T00:40:05;25.50;;;18.42;;
72785;SDS011;60902;53.876;10.674;2022-11-15T00:40:17;25.08;;;18.60;;
72785;SDS011;60902;53.876;10.674;2022-11-15T00:40:28;25.10;;;18.85;;
72785;SDS011;60902;53.876;10.674;2022-11-15T00:40:39;24.95;;;18.67;;
72785;SDS011;60902;53.876;10.674;2022-11-15T00:40:50;25.70;;;18.83;;
72785;SDS011;60902;53.876;10.674;2022-11-15T00:41:02;26.15;;;19.05;;
72785;SDS011;60902;53.876;10.674;2022-11-15T00:41:14;26.75;;;19.00;;
72785;SDS011;60902;53.876;10.674;2022-11-15T00:41:25;25.75;;;18.58;;
72785;SDS011;60902;53.876;10.674;2022-11-15T00:41:36;25.27;;;18.25;;
72785;SDS011;60902;53.876;10.674;2022-11-15T00:41:47;24.20;;;17.75;;
72785;SDS011;60902;53.876;10.674;2022-11-15T00:41:57;23.38;;;17.15;;
72785;SDS011;60902;53.876;10.674;2022-11-15T00:42:08;23.65;;;17.38;;
72785;SDS011;60902;53.876;10.674;2022-11-15T00:42:20;24.80;;;18.13;;
72785;SDS011;60902;53.876;10.674;2022-11-15T00:42:31;26.48;;;18.85;;
72785;SDS011;60902;53.876;10.674;2022-11-15T00:42:42;26.27;;;18.75;;
72785;SDS011;60902;53.876;10.674;2022-11-15T00:42:53;25.13;;;18.17;;
72785;SDS011;60902;53.876;10.674;2022-11-15T00:43:03;24.50;;;17.48;;
72785;SDS011;60902;53.876;10.674;2022-11-15T00:43:14;24.05;;;17.23;;
72785;SDS011;60902;53.876;10.674;2022-11-15T00:43:25;24.60;;;17.40;;
72785;SDS011;60902;53.876;10.674;2022-11-15T00:43:37;24.17;;;17.50;;
72785;SDS011;60902;53.876;10.674;2022-11-15T00:43:49;25.08;;;18.08;;
72785;SDS011;60902;53.876;10.674;2022-11-15T00:44:00;25.70;;;18.23;;
72785;SDS011;60902;53.876;10.674;2022-11-15T00:44:11;26.15;;;18.10;;
72785;SDS011;60902;53.876;10.674;2022-11-15T00:44:22;25.73;;;18.05;;
72785;SDS011;60902;53.876;10.674;2022-11-15T00:44:33;24.60;;;17.85;;
72785;SDS011;60902;53.876;10.674;2022-11-15T00:44:46;25.23;;;17.90;;
72785;SDS011;60902;53.876;10.674;2022-11-15T00:45:00;27.60;;;19.00;;
72785;SDS011;60902;53.876;10.674;2022-11-15T00:45:11;26.77;;;18.58;;
72785;SDS011;60902;53.876;10.674;2022-11-15T00:45:23;23.95;;;17.98;;
72785;SDS011;60902;53.876;10.674;2022-11-15T00:45:35;24.17;;;18.02;;
72785;SDS011;60902;53.876;10.674;2022-11-15T00:45:46;24.48;;;18.67;;
72785;SDS011;60902;53.876;10.674;2022-11-15T00:45:59;23.90;;;18.17;;
72785;SDS011;60902;53.876;10.674;2022-11-15T00:46:10;23.95;;;18.23;;
72785;SDS011;60902;53.876;10.674;2022-11-15T00:46:21;24.00;;;17.98;;
72785;SDS011;60902;53.876;10.674;2022-11-15T00:46:33;24.47;;;17.80;;
72785;SDS011;60902;53.876;10.674;2022-11-15T00:46:44;24.80;;;17.98;;
72785;SDS011;60902;53.876;10.674;2022-11-15T00:46:54;24.48;;;17.90;;
72785;SDS011;60902;53.876;10.674;2022-11-15T00:47:05;25.27;;;18.10;;
72785;SDS011;60902;53.876;10.674;2022-11-15T00:47:16;25.02;;;18.02;;
72785;SDS011;60902;53.876;10.674;2022-11-15T00:47:27;25.65;;;18.15;;
72785;SDS011;60902;53.876;10.674;2022-11-15T00:47:38;25.25;;;18.02;;
72785;SDS011;60902;53.876;10.674;2022-11-15T00:47:49;25.30;;;17.85;;
72785;SDS011;60902;53.876;10.674;2022-11-15T00:48:04;24.90;;;18.27;;
72785;SDS011;60902;53.876;10.674;2022-11-15T00:48:16;24.70;;;18.25;;
72785;SDS011;60902;53.876;10.674;2022-11-15T00:48:27;24.95;;;18.55;;
72785;SDS011;60902;53.876;10.674;2022-11-15T00:48:38;24.63;;;18.25;;
72785;SDS011;60902;53.876;10.674;2022-11-15T00:48:49;24.70;;;18.08;;
72785;SDS011;60902;53.876;10.674;2022-11-15T00:49:02;25.65;;;18.42;;
72785;SDS011;60902;53.876;10.674;2022-11-15T00:49:13;25.90;;;18.25;;
72785;SDS011;60902;53.876;10.674;2022-11-15T00:49:24;26.17;;;19.03;;
72785;SDS011;60902;53.876;10.674;2022-11-15T00:49:36;24.90;;;18.58;;
72785;SDS011;60902;53.876;10.674;2022-11-15T00:49:47;24.73;;;18.73;;
72785;SDS011;60902;53.876;10.674;2022-11-15T00:49:58;24.63;;;18.08;;
72785;SDS011;60902;53.876;10.674;2022-11-15T00:50:09;25.13;;;18.38;;
72785;SDS011;60902;53.876;10.674;2022-11-15T00:50:19;24.95;;;17.65;;
72785;SDS011;60902;53.876;10.674;2022-11-15T00:50:30;24.50;;;17.27;;
72785;SDS011;60902;53.876;10.674;2022-11-15T00:50:41;23.97;;;16.97;;
72785;SDS011;60902;53.876;10.674;2022-11-15T00:50:52;24.33;;;17.52;;
72785;SDS011;60902;53.876;10.674;2022-11-15T00:51:03;25.08;;;17.95;;
72785;SDS011;60902;53.876;10.674;2022-11-15T00:51:15;24.88;;;18.02;;
72785;SDS011;60902;53.876;10.674;2022-11-15T00:51:26;24.55;;;17.58;;
72785;SDS011;60902;53.876;10.674;2022-11-15T00:51:37;24.98;;;17.77;;
72785;SDS011;60902;53.876;10.674;2022-11-15T00:51:48;26.35;;;18.08;;
72785;SDS011;60902;53.876;10.674;2022-11-15T00:51:59;25.95;;;17.92;;
72785;SDS011;60902;53.876;10.674;2022-11-15T00:52:10;26.20;;;18.13;;
72785;SDS011;60902;53.876;10.674;2022-11-15T00:52:20;25.67;;;17.92;;
72785;SDS011;60902;53.876;10.674;2022-11-15T00:52:31;25.35;;;17.83;;
72785;SDS011;60902;53.876;10.674;2022-11-15T00:52:43;23.40;;;17.40;;
72785;SDS011;60902;53.876;10.674;2022-11-15T00:52:55;24.10;;;17.73;;
72785;SDS011;60902;53.876;10.674;2022-11-15T00:53:05;25.00;;;18.25;;
72785;SDS011;60902;53.876;10.674;2022-11-15T00:53:16;25.65;;;18.23;;
72785;SDS011;60902;53.876;10.674;2022-11-15T00:53:27;24.75;;;18.13;;
72785;SDS011;60902;53.876;10.674;2022-11-15T00:53:38;23.92;;;18.05;;
72785;SDS011;60902;53.876;10.674;2022-11-15T00:53:50;23.55;;;18.23;;
72785;SDS011;60902;53.876;10.674;2022-11-15T00:54:02;24.57;;;18.40;;
72785;SDS011;60902;53.876;10.674;2022-11-15T00:54:13;24.45;;;17.67;;
72785;SDS011;60902;53.876;10.674;2022-11-15T00:54:24;26.08;;;18.30;;
72785;SDS011;60902;53.876;10.674;2022-11-15T00:54:35;27.05;;;18.73;;
72785;SDS011;60902;53.876;10.674;2022-11-15T00:54:46;27.25;;;19.00;;
72785;SDS011;60902;53.876;10.674;2022-11-15T00:54:57;25.90;;;18.13;;
72785;SDS011;60902;53.876;10.674;2022-11-15T00:55:09;25.02;;;17.80;;
72785;SDS011;60902;53.876;10.674;2022-11-15T00:55:23;23.73;;;17.23;;
72785;SDS011;60902;53.876;10.674;2022-11-15T00:55:34;23.85;;;17.25;;
72785;SDS011;60902;53.876;10.674;2022-11-15T00:55:45;23.93;;;17.20;;
72785;SDS011;60902;53.876;10.674;2022-11-15T00:55:56;24.70;;;17.52;;
72785;SDS011;60902;53.876;10.674;2022-11-15T00:56:07;24.30;;;17.50;;
72785;SDS011;60902;53.876;10.674;2022-11-15T00:56:18;24.75;;;17.55;;
72785;SDS011;60902;53.876;10.674;2022-11-15T00:56:30;24.25;;;17.70;;
72785;SDS011;60902;53.876;10.674;2022-11-15T00:56:41;24.38;;;18.20;;
72785;SDS011;60902;53.876;10.674;2022-11-15T00:56:52;23.83;;;17.83;;
72785;SDS011;60902;53.876;10.674;2022-11-15T00:57:03;25.33;;;18.00;;
72785;SDS011;60902;53.876;10.674;2022-11-15T00:57:14;25.45;;;17.80;;
72785;SDS011;60902;53.876;10.674;2022-11-15T00:57:24;25.60;;;17.77;;
72785;SDS011;60902;53.876;10.674;2022-11-15T00:57:35;24.13;;;17.13;;
72785;SDS011;60902;53.876;10.674;2022-11-15T00:57:46;24.05;;;17.38;;
72785;SDS011;60902;53.876;10.674;2022-11-15T00:57:57;23.92;;;17.63;;
72785;SDS011;60902;53.876;10.674;2022-11-15T00:58:08;23.70;;;18.15;;
72785;SDS011;60902;53.876;10.674;2022-11-15T00:58:20;23.60;;;17.88;;
72785;SDS011;60902;53.876;10.674;2022-11-15T00:58:31;24.15;;;17.70;;
72785;SDS011;60902;53.876;10.674;2022-11-15T00:58:42;25.15;;;17.55;;
72785;SDS011;60902;53.876;10.674;2022-11-15T00:58:53;25.13;;;17.60;;
72785;SDS011;60902;53.876;10.674;2022-11-15T00:59:04;24.73;;;17.92;;
72785;SDS011;60902;53.876;10.674;2022-11-15T00:59:15;24.73;;;18.35;;
72785;SDS011;60902;53.876;10.674;2022-11-15T00:59:27;24.75;;;18.30;;
72785;SDS011;60902;53.876;10.674;2022-11-15T00:59:38;24.50;;;18.42;;
72785;SDS011;60902;53.876;10.674;2022-11-15T00:59:48;24.50;;;17.92;;
72785;SDS011;60902;53.876;10.674;2022-11-15T00:59:59;23.70;;;17.30;;
72785;SDS011;60902;53.876;10.674;2022-11-15T01:00:11;23.02;;;17.02;;
72785;SDS011;60902;53.876;10.674;2022-11-15T01:00:22;23.83;;;17.45;;
72785;SDS011;60902;53.876;10.674;2022-11-15T01:00:33;24.33;;;18.10;;
72785;SDS011;60902;53.876;10.674;2022-11-15T01:00:44;25.02;;;18.52;;
72785;SDS011;60902;53.876;10.674;2022-11-15T01:00:56;25.42;;;18.92;;
72785;SDS011;60902;53.876;10.674;2022-11-15T01:01:14;25.33;;;17.83;;
72785;SDS011;60902;53.876;10.674;2022-11-15T01:01:25;25.23;;;17.55;;
72785;SDS011;60902;53.876;10.674;2022-11-15T01:01:36;25.45;;;17.77;;
72785;SDS011;60902;53.876;10.674;2022-11-15T01:01:49;25.48;;;17.73;;
72785;SDS011;60902;53.876;10.674;2022-11-15T01:01:59;24.70;;;17.63;;
72785;SDS011;60902;53.876;10.674;2022-11-15T01:02:12;25.90;;;18.42;;
72785;SDS011;60902;53.876;10.674;2022-11-15T01:02:23;25.58;;;19.10;;
72785;SDS011;60902;53.876;10.674;2022-11-15T01:02:34;26.30;;;19.55;;
72785;SDS011;60902;53.876;10.674;2022-11-15T01:02:47;26.50;;;19.10;;
72785;SDS011;60902;53.876;10.674;2022-11-15T01:03:01;26.60;;;18.77;;
72785;SDS011;60902;53.876;10.674;2022-11-15T01:03:12;25.02;;;18.17;;
72785;SDS011;60902;53.876;10.674;2022-11-15T01:03:23;24.63;;;17.88;;
72785;SDS011;60902;53.876;10.674;2022-11-15T01:03:34;23.80;;;17.20;;
72785;SDS011;60902;53.876;10.674;2022-11-15T01:03:47;24.25;;;17.45;;
72785;SDS011;60902;53.876;10.674;2022-11-15T01:04:00;23.47;;;17.53;;
72785;SDS011;60902;53.876;10.674;2022-11-15T01:04:16;24.70;;;18.20;;
72785;SDS011;60902;53.876;10.674;2022-11-15T01:04:27;25.42;;;18.15;;
72785;SDS011;60902;53.876;10.674;2022-11-15T01:04:38;25.33;;;17.98;;
72785;SDS011;60902;53.876;10.674;2022-11-15T01:04:55;24.40;;;17.87;;
72785;SDS011;60902;53.876;10.674;2022-11-15T01:05:06;24.95;;;18.50;;
72785;SDS011;60902;53.876;10.674;2022-11-15T01:05:18;25.13;;;18.70;;
72785;SDS011;60902;53.876;10.674;2022-11-15T01:05:30;24.92;;;18.45;;
72785;SDS011;60902;53.876;10.674;2022-11-15T01:05:41;24.98;;;17.63;;
72785;SDS011;60902;53.876;10.674;2022-11-15T01:05:52;25.00;;;17.60;;
72785;SDS011;60902;53.876;10.674;2022-11-15T01:06:03;25.08;;;17.80;;
72785;SDS011;60902;53.876;10.674;2022-11-15T01:06:14;24.38;;;17.85;;
72785;SDS011;60902;53.876;10.674;2022-11-15T01:06:24;24.02;;;17.67;;
72785;SDS011;60902;53.876;10.674;2022-11-15T01:06:35;23.73;;;17.05;;
72785;SDS011;60902;53.876;10.674;2022-11-15T01:06:46;24.58;;;17.25;;
72785;SDS011;60902;53.876;10.674;2022-11-15T01:06:58;23.95;;;17.40;;
72785;SDS011;60902;53.876;10.674;2022-11-15T01:07:09;24.17;;;17.88;;
72785;SDS011;60902;53.876;10.674;2022-11-15T01:07:20;24.92;;;17.85;;
72785;SDS011;60902;53.876;10.674;2022-11-15T01:07:31;25.90;;;18.02;;
72785;SDS011;60902;53.876;10.674;2022-11-15T01:07:42;26.35;;;18.17;;
72785;SDS011;60902;53.876;10.674;2022-11-15T01:07:53;25.50;;;18.50;;
72785;SDS011;60902;53.876;10.674;2022-11-15T01:08:11;25.55;;;18.42;;
72785;SDS011;60902;53.876;10.674;2022-11-15T01:08:23;24.10;;;17.17;;
72785;SDS011;60902;53.876;10.674;2022-11-15T01:08:35;23.05;;;16.92;;
72785;SDS011;60902;53.876;10.674;2022-11-15T01:08:46;23.27;;;17.15;;
72785;SDS011;60902;53.876;10.674;2022-11-15T01:08:57;23.73;;;17.80;;
72785;SDS011;60902;53.876;10.674;2022-11-15T01:09:09;24.67;;;18.08;;
72785;SDS011;60902;53.876;10.674;2022-11-15T01:09:20;24.85;;;18.58;;
72785;SDS011;60902;53.876;10.674;2022-11-15T01:09:32;23.80;;;18.05;;
72785;SDS011;60902;53.876;10.674;2022-11-15T01:09:43;24.35;;;17.80;;
72785;SDS011;60902;53.876;10.674;2022-11-15T01:09:54;24.33;;;17.52;;
72785;SDS011;60902;53.876;10.674;2022-11-15T01:10:05;25.25;;;17.77;;
72785;SDS011;60902;53.876;10.674;2022-11-15T01:10:16;24.30;;;17.75;;
72785;SDS011;60902;53.876;10.674;2022-11-15T01:10:27;24.20;;;17.75;;
72785;SDS011;60902;53.876;10.674;2022-11-15T01:10:38;24.08;;;17.88;;
72785;SDS011;60902;53.876;10.674;2022-11-15T01:10:52;24.42;;;17.70;;